MSC Bettina — HPFG — position and weather

sailwx.info

Track history (hours):
 
Tides and Currents Weather Stations Pressure Air Temp Water Temp Dewpoint Dewpoint Depression Visibility Wind Speed Wind Dir Waves Ship Positions

MSC Bettina

Last reported at 2014-Dec-19 10:03 UTC. Time now 2014-Dec-20 00:12 UTC.
Position N 24°20' E 119°26'.

Length 366 m; draft 9.2 m.

Type: Ship (hazmat cat A). MMSI: 352361000.

Date/timePositionNaut miles runAvg speedWind from/ knotsBaromVisibWave heightAir tempDewpointWater temp
2014-Dec-19 10:03N 24°20' E 119°26'7415.8
2014-Dec-19 05:20N 23°37' E 118°19'23113.4
2014-Dec-18 12:11N 22°08' E 114°28'914.6
2014-Dec-18 11:33N 22°07' E 114°19'1511.9
2014-Dec-18 10:19N 22°17' E 114°06'3 3.9
2014-Dec-18 09:26N 22°20' E 114°07'0 0.0
2014-Dec-18 08:26N 22°20' E 114°07'0 0.0
2014-Dec-18 07:26N 22°20' E 114°07'0 0.0
2014-Dec-18 06:32N 22°20' E 114°07'0 0.0
2014-Dec-18 05:32N 22°20' E 114°07'0 0.0
2014-Dec-18 04:20N 22°20' E 114°07'0 0.0
2014-Dec-18 03:29N 22°20' E 114°07'0 0.0
2014-Dec-18 02:32N 22°20' E 114°07'0 0.0
2014-Dec-18 01:32N 22°20' E 114°07'0 0.0
2014-Dec-18 00:32N 22°20' E 114°07'0 0.0
2014-Dec-17 23:32N 22°20' E 114°07'2 1.8
2014-Dec-17 22:33N 22°19' E 114°06'12 9.6
2014-Dec-17 21:18N 22°09' E 114°14'810.5
2014-Dec-17 20:33N 22°09' E 114°22'1312.7
2014-Dec-17 19:33N 22°17' E 114°32'5 5.3
2014-Dec-17 18:31N 22°23' E 114°34'0 0.0
2014-Dec-17 17:28N 22°23' E 114°34'0 0.0
2014-Dec-17 16:31N 22°23' E 114°34'0 0.0
2014-Dec-17 15:28N 22°23' E 114°34'0 0.0
2014-Dec-17 14:28N 22°23' E 114°34'0 0.0
2014-Dec-17 13:19N 22°23' E 114°34'0 0.0
2014-Dec-17 12:22N 22°23' E 114°34'0 0.0
2014-Dec-17 11:10N 22°23' E 114°34'0 0.0
2014-Dec-17 10:28N 22°23' E 114°34'0 0.0
2014-Dec-17 09:22N 22°23' E 114°34'0 0.0
2014-Dec-17 06:28N 22°23' E 114°34'0 0.0
2014-Dec-17 05:13N 22°23' E 114°34'0 0.0
2014-Dec-17 04:28N 22°23' E 114°34'0 0.0
2014-Dec-17 03:31N 22°23' E 114°34'0 0.0
2014-Dec-17 02:04N 22°23' E 114°34'0 0.0
2014-Dec-17 01:16N 22°23' E 114°34'0 0.1
2014-Dec-17 00:16N 22°23' E 114°34'0 0.0
2014-Dec-16 23:28N 22°23' E 114°34'0 0.0
2014-Dec-16 22:28N 22°23' E 114°34'0 0.0
2014-Dec-16 21:31N 22°23' E 114°34'0 0.0
2014-Dec-16 20:28N 22°23' E 114°34'0 0.0
2014-Dec-16 17:10N 22°23' E 114°34'0 0.1
2014-Dec-16 16:28N 22°23' E 114°34'0 0.0
2014-Dec-16 15:13N 22°23' E 114°34'0 0.7
2014-Dec-16 14:33N 22°23' E 114°34'20 3.1
2014-Dec-16 08:14N 22°34' E 114°16'0 0.0
2014-Dec-15 16:30N 22°34' E 114°16'17 2.3
2014-Dec-15 09:22N 22°24' E 114°30'6 7.7
2014-Dec-15 08:33N 22°18' E 114°33'  
2014-Dec-11 12:23N 01°20' E 104°23'1315.9
2014-Dec-11 11:34N 01°16' E 104°10'1717.2
2014-Dec-11 10:33N 01°12' E 103°53'9 8.8
2014-Dec-11 09:34N 01°16' E 103°46'0 0.0
2014-Dec-11 07:30N 01°16' E 103°46'0 0.0
2014-Dec-11 06:33N 01°16' E 103°46'0 0.0
2014-Dec-11 05:24N 01°16' E 103°46'0 0.0
2014-Dec-11 04:33N 01°16' E 103°46'0 0.0
2014-Dec-11 03:30N 01°16' E 103°46'0 0.0
2014-Dec-10 21:27N 01°16' E 103°46'0 0.0
2014-Dec-10 19:15N 01°16' E 103°46'0 0.0
2014-Dec-10 16:33N 01°16' E 103°46'0 0.0
2014-Dec-10 15:33N 01°16' E 103°46'0 0.0
2014-Dec-10 14:27N 01°16' E 103°46'0 0.0
2014-Dec-10 07:33N 01°16' E 103°46'0 0.0
2014-Dec-09 22:21N 01°16' E 103°46'  
Track history (hours):
 
Tides and Currents Weather Stations Pressure Air Temp Water Temp Dewpoint Dewpoint Depression Visibility Wind Speed Wind Dir Waves Ship Positions

MSC Bettina

Last reported at 2014-Dec-19 10:03 UTC. Time now 2014-Dec-20 00:12 UTC.
Position N 24°20' E 119°26'.

Length 366 m; draft 9.2 m.

Type: Ship (hazmat cat A). MMSI: 352361000.

Date/timePositionNaut miles runAvg speedWind from/ knotsBaromVisibWave heightAir tempDewpointWater temp
2014-Dec-19 10:03N 24°20' E 119°26'7415.8
2014-Dec-19 05:20N 23°37' E 118°19'23113.4
2014-Dec-18 12:11N 22°08' E 114°28'914.6
2014-Dec-18 11:33N 22°07' E 114°19'1511.9
2014-Dec-18 10:19N 22°17' E 114°06'3 3.9
2014-Dec-18 09:26N 22°20' E 114°07'0 0.0
2014-Dec-18 08:26N 22°20' E 114°07'0 0.0
2014-Dec-18 07:26N 22°20' E 114°07'0 0.0
2014-Dec-18 06:32N 22°20' E 114°07'0 0.0
2014-Dec-18 05:32N 22°20' E 114°07'0 0.0
2014-Dec-18 04:20N 22°20' E 114°07'0 0.0
2014-Dec-18 03:29N 22°20' E 114°07'0 0.0
2014-Dec-18 02:32N 22°20' E 114°07'0 0.0
2014-Dec-18 01:32N 22°20' E 114°07'0 0.0
2014-Dec-18 00:32N 22°20' E 114°07'0 0.0
2014-Dec-17 23:32N 22°20' E 114°07'2 1.8
2014-Dec-17 22:33N 22°19' E 114°06'12 9.6
2014-Dec-17 21:18N 22°09' E 114°14'810.5
2014-Dec-17 20:33N 22°09' E 114°22'1312.7
2014-Dec-17 19:33N 22°17' E 114°32'5 5.3
2014-Dec-17 18:31N 22°23' E 114°34'0 0.0
2014-Dec-17 17:28N 22°23' E 114°34'0 0.0
2014-Dec-17 16:31N 22°23' E 114°34'0 0.0
2014-Dec-17 15:28N 22°23' E 114°34'0 0.0
2014-Dec-17 14:28N 22°23' E 114°34'0 0.0
2014-Dec-17 13:19N 22°23' E 114°34'0 0.0
2014-Dec-17 12:22N 22°23' E 114°34'0 0.0
2014-Dec-17 11:10N 22°23' E 114°34'0 0.0
2014-Dec-17 10:28N 22°23' E 114°34'0 0.0
2014-Dec-17 09:22N 22°23' E 114°34'0 0.0
2014-Dec-17 06:28N 22°23' E 114°34'0 0.0
2014-Dec-17 05:13N 22°23' E 114°34'0 0.0
2014-Dec-17 04:28N 22°23' E 114°34'0 0.0
2014-Dec-17 03:31N 22°23' E 114°34'0 0.0
2014-Dec-17 02:04N 22°23' E 114°34'0 0.0
2014-Dec-17 01:16N 22°23' E 114°34'0 0.1
2014-Dec-17 00:16N 22°23' E 114°34'0 0.0
2014-Dec-16 23:28N 22°23' E 114°34'0 0.0
2014-Dec-16 22:28N 22°23' E 114°34'0 0.0
2014-Dec-16 21:31N 22°23' E 114°34'0 0.0
2014-Dec-16 20:28N 22°23' E 114°34'0 0.0
2014-Dec-16 17:10N 22°23' E 114°34'0 0.1
2014-Dec-16 16:28N 22°23' E 114°34'0 0.0
2014-Dec-16 15:13N 22°23' E 114°34'0 0.7
2014-Dec-16 14:33N 22°23' E 114°34'20 3.1
2014-Dec-16 08:14N 22°34' E 114°16'0 0.0
2014-Dec-15 16:30N 22°34' E 114°16'17 2.3
2014-Dec-15 09:22N 22°24' E 114°30'6 7.7
2014-Dec-15 08:33N 22°18' E 114°33'  
2014-Dec-11 12:23N 01°20' E 104°23'1315.9
2014-Dec-11 11:34N 01°16' E 104°10'1717.2
2014-Dec-11 10:33N 01°12' E 103°53'9 8.8
2014-Dec-11 09:34N 01°16' E 103°46'0 0.0
2014-Dec-11 07:30N 01°16' E 103°46'0 0.0
2014-Dec-11 06:33N 01°16' E 103°46'0 0.0
2014-Dec-11 05:24N 01°16' E 103°46'0 0.0
2014-Dec-11 04:33N 01°16' E 103°46'0 0.0
2014-Dec-11 03:30N 01°16' E 103°46'0 0.0
2014-Dec-10 21:27N 01°16' E 103°46'0 0.0
2014-Dec-10 19:15N 01°16' E 103°46'0 0.0
2014-Dec-10 16:33N 01°16' E 103°46'0 0.0
2014-Dec-10 15:33N 01°16' E 103°46'0 0.0
2014-Dec-10 14:27N 01°16' E 103°46'0 0.0
2014-Dec-10 07:33N 01°16' E 103°46'0 0.0
2014-Dec-09 22:21N 01°16' E 103°46'  

Dump ship's entire track history